createdAt,value
2023-09-29T00:00:09.627Z,12.3
2023-09-29T00:03:10.484Z,12.2
2023-09-29T00:06:09.678Z,12.3
2023-09-29T00:09:09.734Z,12.3
2023-09-29T00:12:09.656Z,12.2
2023-09-29T00:15:09.622Z,12.2
2023-09-29T00:18:10.152Z,12.2
2023-09-29T00:21:09.680Z,12.2
2023-09-29T00:24:09.644Z,12.2
2023-09-29T00:27:09.645Z,12.2
2023-09-29T00:30:09.549Z,12.1
2023-09-29T00:33:10.218Z,12.1
2023-09-29T00:36:09.661Z,12.1
2023-09-29T00:39:10.437Z,12.1
2023-09-29T00:42:10.127Z,12.1
2023-09-29T00:45:09.709Z,12.1
2023-09-29T00:48:10.729Z,12.1
2023-09-29T00:51:09.659Z,12.2
2023-09-29T00:54:09.650Z,12.2
2023-09-29T00:57:09.758Z,12.2
2023-09-29T01:00:09.627Z,12.2
2023-09-29T01:03:10.605Z,12.3
2023-09-29T01:06:09.771Z,12.3
2023-09-29T01:09:09.834Z,12.4
2023-09-29T01:12:09.667Z,12.3
2023-09-29T01:15:09.801Z,12.3
2023-09-29T01:18:10.595Z,12.4
2023-09-29T01:21:09.763Z,12.3
2023-09-29T01:24:09.887Z,12.4
2023-09-29T01:27:09.795Z,12.4
2023-09-29T01:30:09.781Z,12.4
2023-09-29T01:33:11.328Z,12.4
2023-09-29T01:36:09.746Z,12.4
2023-09-29T01:39:09.733Z,12.4
2023-09-29T01:42:09.673Z,12.3
2023-09-29T01:45:09.783Z,12.3
2023-09-29T01:48:10.708Z,12.2
2023-09-29T01:51:09.692Z,12.2
2023-09-29T01:54:09.708Z,12.3
2023-09-29T01:57:09.770Z,12.3
2023-09-29T02:00:09.850Z,12.4
2023-09-29T02:03:10.848Z,12.4
2023-09-29T02:06:09.665Z,12.5
2023-09-29T02:09:09.789Z,12.5
2023-09-29T02:12:09.645Z,12.6
2023-09-29T02:15:09.788Z,12.6
2023-09-29T02:18:10.910Z,12.6
2023-09-29T02:21:09.836Z,12.6
2023-09-29T02:24:09.696Z,12.6
2023-09-29T02:27:09.639Z,12.6
2023-09-29T02:30:09.746Z,12.5
2023-09-29T02:33:10.310Z,12.5
2023-09-29T02:36:09.816Z,12.6
2023-09-29T02:39:09.797Z,12.6
2023-09-29T02:42:09.793Z,12.6
2023-09-29T02:45:09.814Z,12.5
2023-09-29T02:48:10.189Z,12.4
2023-09-29T02:51:09.803Z,12.3
2023-09-29T02:54:09.843Z,12.3
2023-09-29T02:57:10.280Z,12.3
2023-09-29T03:00:10.019Z,12.2
2023-09-29T03:03:10.355Z,12.2
2023-09-29T03:06:09.759Z,12.2
2023-09-29T03:09:09.779Z,12.1
2023-09-29T03:12:09.811Z,12.1
2023-09-29T03:15:09.773Z,12.1
2023-09-29T03:18:10.266Z,12.2
2023-09-29T03:21:09.895Z,12.3
2023-09-29T03:24:09.770Z,12.3
2023-09-29T03:27:09.888Z,12.3
2023-09-29T03:30:09.863Z,12.4
2023-09-29T03:33:10.414Z,12.6
2023-09-29T03:36:10.062Z,12.6
2023-09-29T03:39:09.804Z,12.7
2023-09-29T03:42:10.077Z,12.8
2023-09-29T03:45:10.108Z,12.9
2023-09-29T03:48:10.207Z,12.9
2023-09-29T03:51:09.723Z,13
2023-09-29T03:54:09.721Z,13.1
2023-09-29T03:57:09.772Z,13.1
2023-09-29T04:00:10.035Z,13.1
2023-09-29T04:03:10.439Z,13.1
2023-09-29T04:06:10.030Z,13.1
2023-09-29T04:09:09.811Z,13.1
2023-09-29T04:12:09.805Z,13.2
2023-09-29T04:15:10.625Z,13.2
2023-09-29T04:18:10.121Z,13.2
2023-09-29T04:21:09.882Z,13.3
2023-09-29T04:24:09.884Z,13.3
2023-09-29T04:27:09.912Z,13.4
2023-09-29T04:30:10.203Z,13.4
2023-09-29T04:33:10.118Z,13.4
2023-09-29T04:36:09.913Z,13.4
2023-09-29T04:39:10.099Z,13.4
2023-09-29T04:42:10.035Z,13.4
2023-09-29T04:45:10.099Z,13.4
2023-09-29T04:48:10.251Z,13.5
2023-09-29T04:51:09.829Z,13.6
2023-09-29T04:54:09.899Z,13.6
2023-09-29T04:57:09.959Z,13.6
2023-09-29T05:00:10.193Z,13.6
2023-09-29T05:03:10.501Z,13.7
2023-09-29T05:06:09.817Z,13.7
2023-09-29T05:09:09.950Z,13.8
2023-09-29T05:12:10.039Z,13.8
2023-09-29T05:15:09.798Z,13.8
2023-09-29T05:18:10.322Z,13.7
2023-09-29T05:21:10.017Z,13.8
2023-09-29T05:24:10.561Z,13.8
2023-09-29T05:27:12.702Z,13.8
2023-09-29T05:30:10.059Z,13.9
2023-09-29T05:33:10.342Z,13.9
2023-09-29T05:36:10.117Z,13.9
2023-09-29T05:39:11.186Z,14
2023-09-29T05:42:10.226Z,14
2023-09-29T05:45:10.052Z,14.1
2023-09-29T05:48:10.318Z,14.1
2023-09-29T05:51:10.978Z,14.1
2023-09-29T05:54:10.849Z,14.1
2023-09-29T05:57:09.861Z,14.3
2023-09-29T06:00:10.303Z,14.3
2023-09-29T06:03:11.086Z,14.4
2023-09-29T06:06:09.899Z,14.4
2023-09-29T06:09:10.787Z,14.4
2023-09-29T06:12:10.153Z,14.5
2023-09-29T06:15:10.077Z,14.6
2023-09-29T06:18:10.503Z,14.6
2023-09-29T06:21:09.901Z,14.6
2023-09-29T06:24:10.397Z,14.6
2023-09-29T06:27:09.917Z,14.7
2023-09-29T06:30:10.287Z,14.8
2023-09-29T06:33:10.252Z,14.9
2023-09-29T06:36:09.887Z,15.1
2023-09-29T06:39:09.898Z,15.2
2023-09-29T06:42:10.064Z,15.3
2023-09-29T06:45:09.999Z,15.4
2023-09-29T06:48:10.631Z,15.5
2023-09-29T06:51:11.312Z,15.6
2023-09-29T06:54:09.921Z,15.6
2023-09-29T06:57:10.355Z,15.8
2023-09-29T07:00:10.072Z,15.8
2023-09-29T07:03:10.299Z,15.9
2023-09-29T07:06:09.962Z,16.1
2023-09-29T07:09:10.238Z,16.1
2023-09-29T07:12:10.176Z,16.2
2023-09-29T07:15:10.178Z,16.3
2023-09-29T07:18:10.164Z,16.3
2023-09-29T07:21:10.193Z,16.4
2023-09-29T07:24:10.245Z,16.4
2023-09-29T07:27:10.190Z,16.4
2023-09-29T07:30:10.005Z,16.5
2023-09-29T07:33:10.638Z,16.5
2023-09-29T07:36:10.401Z,16.6
2023-09-29T07:39:09.993Z,16.7
2023-09-29T07:42:09.981Z,16.8
2023-09-29T07:45:10.234Z,16.8
2023-09-29T07:48:10.318Z,16.9
2023-09-29T07:51:10.216Z,16.9
2023-09-29T07:54:10.126Z,17
2023-09-29T07:57:10.089Z,16.9
2023-09-29T08:00:10.006Z,17
2023-09-29T08:03:11.060Z,17.1
2023-09-29T08:06:10.094Z,17.1
2023-09-29T08:09:09.994Z,17.2
2023-09-29T08:12:10.098Z,17.3
2023-09-29T08:15:09.985Z,17.4
2023-09-29T08:18:10.328Z,17.6
2023-09-29T08:21:09.876Z,17.6
2023-09-29T08:24:09.900Z,17.7
2023-09-29T08:27:09.967Z,17.7
2023-09-29T08:30:10.723Z,17.8
2023-09-29T08:33:55.962Z,17.9
2023-09-29T08:36:09.987Z,18.1
2023-09-29T08:39:10.127Z,18.2
2023-09-29T08:42:10.139Z,18.4
2023-09-29T08:45:09.948Z,18.6
2023-09-29T08:48:10.228Z,18.6
2023-09-29T08:51:09.998Z,18.6
2023-09-29T08:54:10.127Z,18.8
2023-09-29T08:57:10.106Z,18.8
2023-09-29T09:00:10.633Z,18.8
2023-09-29T09:03:10.585Z,19
2023-09-29T09:06:10.211Z,19.1
2023-09-29T09:09:10.162Z,19.4
2023-09-29T09:12:10.015Z,19.5
2023-09-29T09:15:14.843Z,19.4
2023-09-29T09:18:10.639Z,19.6
2023-09-29T09:21:09.998Z,19.5
2023-09-29T09:24:10.017Z,19.4
2023-09-29T09:27:11.847Z,19.4
2023-09-29T09:30:10.095Z,19.4
2023-09-29T09:33:10.551Z,19.3
2023-09-29T09:36:10.057Z,19.3
2023-09-29T09:39:10.419Z,19.4
2023-09-29T09:42:09.959Z,19.6
2023-09-29T09:45:10.091Z,19.7
2023-09-29T09:48:14.395Z,19.9
2023-09-29T09:51:10.100Z,19.9
2023-09-29T09:54:09.936Z,20.1
2023-09-29T09:57:10.759Z,20.2
2023-09-29T10:00:10.156Z,20.2
2023-09-29T10:03:10.482Z,20.1
2023-09-29T10:06:09.963Z,20.2
2023-09-29T10:09:10.027Z,20.3
2023-09-29T10:12:09.907Z,20.4
2023-09-29T10:15:10.007Z,20.5
2023-09-29T10:18:10.213Z,20.8
2023-09-29T10:21:09.893Z,20.9
2023-09-29T10:24:10.526Z,21.1
2023-09-29T10:27:10.162Z,21.2
2023-09-29T10:30:10.490Z,21.2
2023-09-29T10:33:10.498Z,21.2
2023-09-29T10:36:09.890Z,21.3
2023-09-29T10:39:10.547Z,21.4
2023-09-29T10:42:09.987Z,21.4
2023-09-29T10:45:09.976Z,21.6
2023-09-29T10:48:10.717Z,21.8
2023-09-29T10:51:09.950Z,22
2023-09-29T10:54:10.162Z,22.1
2023-09-29T10:57:10.020Z,22.1
2023-09-29T11:00:10.757Z,22.1
2023-09-29T11:03:10.374Z,22.3
2023-09-29T11:06:10.045Z,22.6
2023-09-29T11:09:09.980Z,22.8
2023-09-29T11:12:10.097Z,22.9
2023-09-29T11:15:10.056Z,22.8
2023-09-29T11:18:10.249Z,22.7
2023-09-29T11:21:10.203Z,22.6
2023-09-29T11:24:09.974Z,22.6
2023-09-29T11:27:09.862Z,22.8
2023-09-29T11:30:10.124Z,22.8
2023-09-29T11:33:10.255Z,22.9
2023-09-29T11:39:10.112Z,23.1
2023-09-29T11:42:10.227Z,23.4
2023-09-29T11:45:10.065Z,24.1
2023-09-29T11:48:10.329Z,25.6
2023-09-29T11:51:10.009Z,26.2
2023-09-29T11:54:10.586Z,26.6
2023-09-29T11:57:10.093Z,27.2
2023-09-29T12:00:10.118Z,27.4
2023-09-29T12:03:10.609Z,27.4
2023-09-29T12:06:10.376Z,27.2
2023-09-29T12:09:09.971Z,27.1
2023-09-29T12:12:11.772Z,26.7
2023-09-29T12:15:10.322Z,26.6
2023-09-29T12:18:10.809Z,26.4
2023-09-29T12:21:09.954Z,26.2
2023-09-29T12:24:10.189Z,26.8
2023-09-29T12:27:10.415Z,27.3
2023-09-29T12:30:10.027Z,28.1
2023-09-29T12:33:10.456Z,28.2
2023-09-29T12:36:10.038Z,27.9
2023-09-29T12:39:09.870Z,27.5
2023-09-29T12:42:10.065Z,27.3
2023-09-29T12:45:10.125Z,27.4
2023-09-29T12:48:10.405Z,27.5
2023-09-29T12:51:10.060Z,27.4
2023-09-29T12:54:10.585Z,27.1
2023-09-29T12:57:13.161Z,27.2
2023-09-29T13:00:10.008Z,27.2
2023-09-29T13:03:10.302Z,26.9
2023-09-29T13:06:10.387Z,26.2
2023-09-29T13:09:09.961Z,25.9
2023-09-29T13:12:33.652Z,25.7
2023-09-29T13:15:09.960Z,25.4
2023-09-29T13:18:10.907Z,25.4
2023-09-29T13:21:10.227Z,25.3
2023-09-29T13:24:10.354Z,25
2023-09-29T13:27:10.039Z,24.9
2023-09-29T13:30:10.266Z,24.7
2023-09-29T13:33:10.467Z,24.7
2023-09-29T13:36:10.275Z,24.7
2023-09-29T13:39:09.993Z,24.6
2023-09-29T13:42:10.256Z,24.5
2023-09-29T13:45:13.320Z,24.4
2023-09-29T13:48:10.314Z,24.3
2023-09-29T13:51:09.987Z,24.3
2023-09-29T13:54:09.861Z,24.3
2023-09-29T13:57:09.997Z,24.3
2023-09-29T14:00:10.028Z,24.4
2023-09-29T14:03:10.302Z,24.4
2023-09-29T14:06:09.863Z,24.4
2023-09-29T14:09:27.136Z,24.5
2023-09-29T14:12:10.196Z,24.6
2023-09-29T14:15:09.966Z,24.5
2023-09-29T14:18:10.719Z,24.5
2023-09-29T14:21:09.861Z,24.5
2023-09-29T14:24:10.615Z,24.4
2023-09-29T14:27:10.029Z,24.4
2023-09-29T14:30:10.153Z,24.5
2023-09-29T14:33:10.823Z,24.6
2023-09-29T14:36:10.042Z,24.7
2023-09-29T14:39:09.766Z,24.9
2023-09-29T14:42:10.078Z,25.2
2023-09-29T14:45:09.872Z,25.3
2023-09-29T14:48:10.342Z,25.3
2023-09-29T14:51:10.018Z,25
2023-09-29T14:54:09.942Z,24.7
2023-09-29T14:57:09.863Z,24.6
2023-09-29T15:00:10.016Z,24.4
2023-09-29T15:03:10.317Z,24.2
2023-09-29T15:06:12.403Z,24.2
2023-09-29T15:09:10.048Z,24.1
2023-09-29T15:12:09.891Z,24.2
2023-09-29T15:15:10.084Z,24.1
2023-09-29T15:18:10.614Z,24.1
2023-09-29T15:21:10.082Z,24.1
2023-09-29T15:24:10.239Z,24.1
2023-09-29T15:27:09.983Z,24
2023-09-29T15:30:11.282Z,24
2023-09-29T15:33:10.275Z,23.9
2023-09-29T15:36:10.046Z,23.8
2023-09-29T15:39:10.265Z,23.8
2023-09-29T15:42:09.966Z,23.4
2023-09-29T15:45:10.291Z,23
2023-09-29T15:48:10.370Z,22.2
2023-09-29T15:51:10.035Z,21.8
2023-09-29T15:54:09.958Z,21.6
2023-09-29T15:57:09.970Z,21.6
2023-09-29T16:00:10.707Z,21.6
2023-09-29T16:03:10.320Z,21.6
2023-09-29T16:06:10.080Z,21.6
2023-09-29T16:09:10.073Z,21.5
2023-09-29T16:12:09.854Z,21.5
2023-09-29T16:15:10.151Z,21.4
2023-09-29T16:18:10.138Z,21.3
2023-09-29T16:21:10.107Z,21.2
2023-09-29T16:24:09.901Z,21.1
2023-09-29T16:27:09.915Z,21.1
2023-09-29T16:30:10.368Z,21.1
2023-09-29T16:33:11.282Z,21.2
2023-09-29T16:36:10.184Z,21.2
2023-09-29T16:39:09.967Z,21.2
2023-09-29T16:42:10.012Z,21.2
2023-09-29T16:45:09.983Z,21.1
2023-09-29T16:48:10.478Z,21.1
2023-09-29T16:51:09.872Z,21.1
2023-09-29T16:54:10.095Z,21
2023-09-29T16:57:10.068Z,20.9
2023-09-29T17:00:10.128Z,20.9
2023-09-29T17:03:10.287Z,20.9
2023-09-29T17:06:09.987Z,20.8
2023-09-29T17:09:09.729Z,20.7
2023-09-29T17:12:09.949Z,20.6
2023-09-29T17:15:10.623Z,20.5
2023-09-29T17:18:10.182Z,20.3
2023-09-29T17:21:09.817Z,20.3
2023-09-29T17:24:09.888Z,20.2
2023-09-29T17:27:10.002Z,20.2
2023-09-29T17:30:10.123Z,20.3
2023-09-29T17:33:10.819Z,20.3
2023-09-29T17:36:09.962Z,20.2
2023-09-29T17:39:09.845Z,20.2
2023-09-29T17:42:09.776Z,20.1
2023-09-29T17:45:09.789Z,20.1
2023-09-29T17:48:34.735Z,19.9
2023-09-29T17:51:09.842Z,19.9
2023-09-29T17:54:10.063Z,19.9
2023-09-29T17:57:09.818Z,19.9
2023-09-29T18:00:09.742Z,19.9
2023-09-29T18:03:09.991Z,19.9
2023-09-29T18:06:09.920Z,20
2023-09-29T18:09:10.307Z,20.1
2023-09-29T18:12:09.820Z,20.2
2023-09-29T18:15:09.861Z,20.2
2023-09-29T18:18:10.237Z,20.3
2023-09-29T18:21:10.199Z,20.3
2023-09-29T18:24:10.090Z,20.3
2023-09-29T18:27:09.998Z,20.3
2023-09-29T18:30:10.114Z,20.3
2023-09-29T18:33:10.519Z,20.1
2023-09-29T18:36:10.229Z,19.9
2023-09-29T18:39:09.782Z,19.8
2023-09-29T18:42:10.213Z,19.6
2023-09-29T18:45:09.937Z,19.4
2023-09-29T18:48:10.289Z,19.2
2023-09-29T18:51:10.198Z,18.9
2023-09-29T18:54:09.923Z,18.8
2023-09-29T18:57:09.972Z,18.6
2023-09-29T19:00:10.180Z,18.4
2023-09-29T19:03:10.564Z,18.4
2023-09-29T19:06:10.678Z,18.3
2023-09-29T19:09:11.160Z,18.3
2023-09-29T19:12:09.969Z,18.2
2023-09-29T19:15:10.036Z,18.1
2023-09-29T19:18:10.358Z,18.1
2023-09-29T19:21:09.822Z,18.1
2023-09-29T19:24:10.033Z,18
2023-09-29T19:27:09.961Z,17.9
2023-09-29T19:30:09.959Z,17.8
2023-09-29T19:33:13.707Z,17.6
2023-09-29T19:36:09.986Z,17.4
2023-09-29T19:39:10.354Z,17.2
2023-09-29T19:42:10.272Z,16.9
2023-09-29T19:45:10.033Z,16.7
2023-09-29T19:48:10.193Z,16.6
2023-09-29T19:51:11.676Z,16.5
2023-09-29T19:54:10.667Z,16.5
2023-09-29T19:57:09.815Z,16.5
2023-09-29T20:00:10.360Z,16.5
2023-09-29T20:03:10.262Z,16.5
2023-09-29T20:06:09.945Z,16.4
2023-09-29T20:09:09.942Z,16.4
2023-09-29T20:12:09.991Z,16.4
2023-09-29T20:15:09.792Z,16.4
2023-09-29T20:18:10.260Z,16.4
2023-09-29T20:21:10.029Z,16.3
2023-09-29T20:24:09.996Z,16.3
2023-09-29T20:27:10.060Z,16.3
2023-09-29T20:30:09.880Z,16.3
2023-09-29T20:33:10.546Z,16.3
2023-09-29T20:36:10.179Z,16.3
2023-09-29T20:39:09.918Z,16.3
2023-09-29T20:42:12.554Z,16.2
2023-09-29T20:45:10.052Z,16.2
2023-09-29T20:48:10.247Z,16.3
2023-09-29T20:51:09.995Z,16.3
2023-09-29T20:54:09.982Z,16.3
2023-09-29T20:57:09.844Z,16.2
2023-09-29T21:00:10.061Z,16.2
2023-09-29T21:03:10.358Z,16.2
2023-09-29T21:06:10.096Z,16.2
2023-09-29T21:09:09.925Z,16.2
2023-09-29T21:12:09.987Z,16.2
2023-09-29T21:15:10.425Z,16.1
2023-09-29T21:18:10.363Z,16.1
2023-09-29T21:21:09.765Z,16.1
2023-09-29T21:24:10.639Z,15.9
2023-09-29T21:27:09.926Z,15.7
2023-09-29T21:30:10.796Z,15.6
2023-09-29T21:33:10.334Z,15.4
2023-09-29T21:36:09.898Z,15.4
2023-09-29T21:39:10.031Z,15.3
2023-09-29T21:42:10.137Z,15.1
2023-09-29T21:45:10.628Z,15
2023-09-29T21:48:10.219Z,14.9
2023-09-29T21:51:10.011Z,14.9
2023-09-29T21:54:09.951Z,14.8
2023-09-29T21:57:09.803Z,14.8
2023-09-29T22:00:12.040Z,14.9
2023-09-29T22:03:10.991Z,14.9
2023-09-29T22:06:10.062Z,14.9
2023-09-29T22:09:09.938Z,14.9
2023-09-29T22:12:09.895Z,14.9
2023-09-29T22:15:10.258Z,15
2023-09-29T22:18:10.235Z,15.1
2023-09-29T22:21:10.060Z,15.1
2023-09-29T22:24:10.109Z,15.1
2023-09-29T22:27:09.885Z,15.1
2023-09-29T22:30:10.424Z,15
2023-09-29T22:33:10.715Z,14.9
2023-09-29T22:36:09.965Z,14.9
2023-09-29T22:39:09.969Z,14.8
2023-09-29T22:42:09.957Z,14.8
2023-09-29T22:45:10.729Z,14.8
2023-09-29T22:48:10.309Z,14.7
2023-09-29T22:51:09.871Z,14.7
2023-09-29T22:54:10.047Z,14.7
2023-09-29T22:57:10.014Z,14.6
2023-09-29T23:00:10.354Z,14.6
2023-09-29T23:03:10.659Z,14.4
2023-09-29T23:06:10.676Z,14.3
2023-09-29T23:09:10.031Z,14.2
2023-09-29T23:12:10.056Z,14.1
2023-09-29T23:15:09.829Z,13.9
2023-09-29T23:18:10.371Z,13.9
2023-09-29T23:21:10.023Z,13.8
2023-09-29T23:24:09.987Z,13.8
2023-09-29T23:27:09.883Z,13.7
2023-09-29T23:30:10.245Z,13.6
2023-09-29T23:33:10.057Z,13.5
2023-09-29T23:36:09.871Z,13.5
2023-09-29T23:39:09.737Z,13.5
2023-09-29T23:42:09.735Z,13.4
2023-09-29T23:45:09.868Z,13.4
2023-09-29T23:48:10.081Z,13.4
2023-09-29T23:51:10.443Z,13.3
2023-09-29T23:54:09.935Z,13.3
2023-09-29T23:57:09.802Z,13.3
